Time;durP1;ratioP1;P1;durP2;ratioP2;P2;SDS_P1;SDS_P2;PMS_P1;PMS_P2;Temp;Humidity;BMP_temperature;BMP_pressure;BME280_temperature;BME280_humidity;BME280_pressure;Samples;Min_cycle;Max_cycle;Signal;HPM_P1;HPM_P2
2023/03/30 00:00:28;;;;;;;2.85;1.00;;;;;;;;;;4998715;28;20509;-63
2023/03/30 00:03:01;;;;;;;7.20;1.27;;;;;;;;;;5013979;28;20057;-61
2023/03/30 00:05:35;;;;;;;2.83;0.90;;;;;;;;;;5030669;28;20159;-63
2023/03/30 00:08:04;;;;;;;2.70;0.70;;;;;;;;;;4982169;28;20065;-62
2023/03/30 00:10:37;;;;;;;2.03;0.90;;;;;;;;;;4978606;28;20054;-65
2023/03/30 00:13:07;;;;;;;1.80;0.90;;;;;;;;;;5010383;28;20084;-62
2023/03/30 00:15:37;;;;;;;2.75;1.65;;;;;;;;;;5010468;28;20402;-64
2023/03/30 00:18:07;;;;;;;3.08;1.48;;;;;;;;;;5010426;28;20049;-63
2023/03/30 00:20:41;;;;;;;2.00;0.82;;;;;;;;;;5010381;28;20523;-63
2023/03/30 00:23:11;;;;;;;2.75;0.80;;;;;;;;;;4993835;28;20064;-63
2023/03/30 00:25:42;;;;;;;2.67;1.02;;;;;;;;;;4965687;28;20060;-62
2023/03/30 00:28:11;;;;;;;3.13;1.05;;;;;;;;;;4959068;28;20462;-62
2023/03/30 00:30:42;;;;;;;4.28;1.10;;;;;;;;;;4974694;28;20175;-62
2023/03/30 00:33:12;;;;;;;2.03;0.85;;;;;;;;;;4942193;28;20600;-63
2023/03/30 00:35:42;;;;;;;1.08;0.50;;;;;;;;;;4938802;28;20644;-62
2023/03/30 00:38:12;;;;;;;1.95;0.40;;;;;;;;;;4938833;28;20073;-61
2023/03/30 00:40:51;;;;;;;1.90;0.73;;;;;;;;;;4935216;29;20058;-61
2023/03/30 00:43:22;;;;;;;1.73;0.50;;;;;;;;;;4951340;29;20082;-62
2023/03/30 00:45:55;;;;;;;2.58;0.85;;;;;;;;;;4897524;29;20421;-63
2023/03/30 00:48:35;;;;;;;3.53;0.70;;;;;;;;;;4905550;29;20067;-61
2023/03/30 00:51:10;;;;;;;2.78;0.88;;;;;;;;;;4897848;29;20060;-63
2023/03/30 00:53:47;;;;;;;2.95;0.73;;;;;;;;;;4894156;29;20052;-64
2023/03/30 00:56:21;;;;;;;2.45;1.05;;;;;;;;;;4894255;29;20100;-64
2023/03/30 00:58:54;;;;;;;5.10;0.60;;;;;;;;;;4925841;29;20063;-63
2023/03/30 01:01:32;;;;;;;1.55;0.85;;;;;;;;;;4894223;29;20065;-63
2023/03/30 01:04:05;;;;;;;3.03;0.80;;;;;;;;;;4894375;29;20064;-62
2023/03/30 01:06:38;;;;;;;1.60;0.85;;;;;;;;;;4875427;29;20064;-63
2023/03/30 01:09:09;;;;;;;7.03;0.90;;;;;;;;;;4890497;29;20060;-64
2023/03/30 01:11:40;;;;;;;3.05;0.65;;;;;;;;;;4912870;29;20056;-62
2023/03/30 01:14:15;;;;;;;3.50;1.42;;;;;;;;;;4928422;29;20060;-63
2023/03/30 01:17:02;;;;;;;1.83;0.80;;;;;;;;;;4894080;29;20059;-64
2023/03/30 01:20:22;;;;;;;1.55;0.60;;;;;;;;;;4897394;29;20056;-63
2023/03/30 01:23:36;;;;;;;2.80;0.80;;;;;;;;;;4875409;29;20146;-63
2023/03/30 01:26:20;;;;;;;6.82;0.75;;;;;;;;;;4857115;29;20528;-62
2023/03/30 01:28:59;;;;;;;2.95;0.75;;;;;;;;;;4841262;29;20053;-62
2023/03/30 01:31:48;;;;;;;4.57;0.93;;;;;;;;;;4838419;29;20061;-62
2023/03/30 01:34:51;;;;;;;4.55;1.45;;;;;;;;;;4851208;29;20509;-63
2023/03/30 01:37:55;;;;;;;2.28;0.70;;;;;;;;;;4856851;29;20073;-62
2023/03/30 01:40:38;;;;;;;2.53;0.80;;;;;;;;;;4826026;29;20065;-62
2023/03/30 01:43:19;;;;;;;3.10;0.60;;;;;;;;;;4857714;29;20053;-62
2023/03/30 01:45:52;;;;;;;2.95;0.68;;;;;;;;;;4844462;29;20068;-62
2023/03/30 01:48:34;;;;;;;6.20;1.05;;;;;;;;;;4875352;29;20517;-63
2023/03/30 01:51:11;;;;;;;3.55;0.80;;;;;;;;;;4856262;29;20510;-63
2023/03/30 01:53:57;;;;;;;3.28;0.80;;;;;;;;;;4863947;29;20057;-62
2023/03/30 01:56:41;;;;;;;2.45;1.02;;;;;;;;;;4894028;29;20529;-63
2023/03/30 01:59:33;;;;;;;4.75;0.93;;;;;;;;;;4934891;28;20065;-62
2023/03/30 02:02:06;;;;;;;2.13;0.90;;;;;;;;;;4941220;28;20063;-62
2023/03/30 02:04:40;;;;;;;4.32;1.10;;;;;;;;;;4969824;28;20414;-61
2023/03/30 02:07:18;;;;;;;2.05;1.10;;;;;;;;;;4931269;29;20051;-61
2023/03/30 02:09:55;;;;;;;4.82;1.00;;;;;;;;;;4893479;29;20048;-61
2023/03/30 02:12:29;;;;;;;1.75;1.15;;;;;;;;;;4862620;29;20109;-61
2023/03/30 02:15:03;;;;;;;4.60;1.17;;;;;;;;;;4893191;29;20053;-62
2023/03/30 02:17:34;;;;;;;2.08;1.02;;;;;;;;;;4843792;29;20592;-61
2023/03/30 02:20:10;;;;;;;4.53;1.00;;;;;;;;;;4877136;29;20064;-62
2023/03/30 02:59:26;;;;;;;6.45;1.27;;;;;;;;;;4989596;28;20046;-63
2023/03/30 03:25:12;;;;;;;1.90;0.88;;;;;;;;;;4954081;28;20043;-63
2023/03/30 03:27:53;;;;;;;2.80;1.02;;;;;;;;;;4898241;29;20053;-63
2023/03/30 03:30:26;;;;;;;3.05;1.25;;;;;;;;;;4877146;29;20091;-64
2023/03/30 03:33:06;;;;;;;3.15;1.23;;;;;;;;;;4890431;29;20467;-63
2023/03/30 03:35:44;;;;;;;3.95;1.80;;;;;;;;;;4884068;29;20078;-62
2023/03/30 03:38:52;;;;;;;3.08;1.02;;;;;;;;;;4858387;29;20053;-62
2023/03/30 03:41:25;;;;;;;6.15;1.13;;;;;;;;;;4835930;29;20487;-63
2023/03/30 03:56:27;;;;;;;4.43;1.63;;;;;;;;;;4768231;30;20048;-62
2023/03/30 04:35:15;;;;;;;3.70;1.52;;;;;;;;;;4990483;28;20047;-62
2023/03/30 04:38:08;;;;;;;6.20;1.50;;;;;;;;;;4945190;28;20046;-63
2023/03/30 04:41:09;;;;;;;5.38;1.90;;;;;;;;;;4914266;29;20078;-62
2023/03/30 04:44:09;;;;;;;4.30;1.45;;;;;;;;;;4821411;29;20054;-63
2023/03/30 06:27:32;;;;;;;0.60;0.30;;;;;;;;;;4960733;28;20054;-60
2023/03/30 06:30:04;;;;;;;0.98;0.20;;;;;;;;;;4973298;28;20047;-60
2023/03/30 06:32:35;;;;;;;2.05;0.20;;;;;;;;;;4934771;29;20059;-62
2023/03/30 06:35:25;;;;;;;0.60;0.20;;;;;;;;;;4876779;29;20535;-61
2023/03/30 06:37:56;;;;;;;0.68;0.15;;;;;;;;;;4847276;29;20045;-65
2023/03/30 06:40:26;;;;;;;0.45;0.17;;;;;;;;;;4828748;29;20053;-62
2023/03/30 06:42:57;;;;;;;0.60;0.20;;;;;;;;;;4840988;29;20074;-62
2023/03/30 06:45:56;;;;;;;0.63;0.10;;;;;;;;;;4822572;29;20069;-62
2023/03/30 06:48:27;;;;;;;2.17;0.28;;;;;;;;;;4786275;29;20058;-63
2023/03/30 06:51:26;;;;;;;0.20;0.20;;;;;;;;;;4786632;29;20051;-61
2023/03/30 06:53:58;;;;;;;0.82;0.50;;;;;;;;;;4804149;29;20046;-62
2023/03/30 06:56:28;;;;;;;0.38;0.20;;;;;;;;;;4786058;29;20176;-62
2023/03/30 06:59:05;;;;;;;0.55;0.10;;;;;;;;;;4786167;29;20055;-61
2023/03/30 07:01:55;;;;;;;0.22;0.20;;;;;;;;;;4786282;29;20566;-62
2023/03/30 07:04:45;;;;;;;2.15;0.30;;;;;;;;;;4743270;30;20064;-61
2023/03/30 07:07:28;;;;;;;1.02;0.38;;;;;;;;;;4817685;29;20065;-62
2023/03/30 07:09:58;;;;;;;0.60;0.55;;;;;;;;;;4806703;29;20102;-62
2023/03/30 07:12:28;;;;;;;0.20;0.20;;;;;;;;;;4803978;29;20078;-62
2023/03/30 07:14:58;;;;;;;2.70;0.77;;;;;;;;;;4808177;29;20522;-63
2023/03/30 07:17:29;;;;;;;0.30;0.30;;;;;;;;;;4779379;29;20438;-62
2023/03/30 07:20:00;;;;;;;1.73;0.20;;;;;;;;;;4790066;29;20531;-61
2023/03/30 07:22:31;;;;;;;0.20;0.13;;;;;;;;;;4785747;30;20065;-62
2023/03/30 07:25:01;;;;;;;0.30;0.22;;;;;;;;;;4755822;30;20051;-61
2023/03/30 07:27:31;;;;;;;0.43;0.20;;;;;;;;;;4767943;30;20067;-62
2023/03/30 07:30:02;;;;;;;0.90;0.30;;;;;;;;;;4732116;30;20447;-62
2023/03/30 07:32:47;;;;;;;0.20;0.10;;;;;;;;;;4767601;30;20063;-63
2023/03/30 07:35:18;;;;;;;0.43;0.22;;;;;;;;;;4715945;30;20507;-62
2023/03/30 07:37:47;;;;;;;0.25;0.25;;;;;;;;;;4728927;30;20060;-62
2023/03/30 07:40:20;;;;;;;0.85;0.30;;;;;;;;;;4732338;30;20061;-63
2023/03/30 07:42:50;;;;;;;0.60;0.32;;;;;;;;;;4746734;30;20107;-62
2023/03/30 07:45:20;;;;;;;0.32;0.15;;;;;;;;;;4747249;30;20537;-61
2023/03/30 07:47:50;;;;;;;0.32;0.20;;;;;;;;;;4749684;30;20103;-61
2023/03/30 07:50:20;;;;;;;0.28;0.10;;;;;;;;;;4749756;30;20063;-62
2023/03/30 07:52:51;;;;;;;1.30;0.20;;;;;;;;;;4749681;30;20064;-62
2023/03/30 07:55:21;;;;;;;0.30;0.10;;;;;;;;;;4767261;30;20105;-63
2023/03/30 07:57:56;;;;;;;3.90;0.17;;;;;;;;;;4781826;29;20164;-64
2023/03/30 08:00:26;;;;;;;0.68;0.20;;;;;;;;;;4803214;29;20474;-62
2023/03/30 08:03:24;;;;;;;2.67;1.00;;;;;;;;;;4780297;29;20107;-61
2023/03/30 08:06:05;;;;;;;0.43;0.20;;;;;;;;;;4802999;29;20061;-63
2023/03/30 08:08:39;;;;;;;0.43;0.13;;;;;;;;;;4821361;29;20054;-62
2023/03/30 08:11:14;;;;;;;0.40;0.10;;;;;;;;;;4777348;29;20058;-62
2023/03/30 08:13:44;;;;;;;0.73;0.30;;;;;;;;;;4799343;29;20416;-62
2023/03/30 08:16:13;;;;;;;0.20;0.20;;;;;;;;;;4802581;29;20070;-62
2023/03/30 08:18:46;;;;;;;1.10;0.10;;;;;;;;;;4831730;29;20070;-62
2023/03/30 08:21:16;;;;;;;0.40;0.20;;;;;;;;;;4839653;29;20057;-62
2023/03/30 08:23:46;;;;;;;6.32;0.20;;;;;;;;;;4823983;29;20058;-64
2023/03/30 08:26:16;;;;;;;0.60;0.35;;;;;;;;;;4883097;29;20075;-62
2023/03/30 08:28:46;;;;;;;1.05;0.20;;;;;;;;;;4863863;29;20064;-61
2023/03/30 08:31:17;;;;;;;1.73;0.20;;;;;;;;;;4885981;29;20055;-61
2023/03/30 08:33:48;;;;;;;0.98;0.20;;;;;;;;;;4898265;29;20060;-62
2023/03/30 08:36:19;;;;;;;1.52;0.20;;;;;;;;;;4897031;29;20052;-63
2023/03/30 08:38:49;;;;;;;3.25;0.70;;;;;;;;;;4932731;29;20423;-62
2023/03/30 08:41:28;;;;;;;0.70;0.30;;;;;;;;;;4931573;29;20047;-62
2023/03/30 08:44:14;;;;;;;0.98;0.30;;;;;;;;;;4926150;29;20431;-62
2023/03/30 08:46:46;;;;;;;0.60;0.32;;;;;;;;;;4918045;29;20059;-62
2023/03/30 08:49:19;;;;;;;0.60;0.25;;;;;;;;;;4932348;29;20051;-62
2023/03/30 08:51:52;;;;;;;0.45;0.28;;;;;;;;;;4955793;28;20054;-62
2023/03/30 08:54:24;;;;;;;0.57;0.20;;;;;;;;;;4958178;28;20054;-61
2023/03/30 08:57:27;;;;;;;0.50;0.30;;;;;;;;;;4919579;29;20047;-61
2023/03/30 09:00:18;;;;;;;0.50;0.15;;;;;;;;;;4913210;29;20075;-62
2023/03/30 09:02:52;;;;;;;0.88;0.38;;;;;;;;;;4913591;29;20428;-62
2023/03/30 09:05:25;;;;;;;0.70;0.28;;;;;;;;;;4932520;29;20507;-61
2023/03/30 09:08:18;;;;;;;0.50;0.17;;;;;;;;;;4932202;29;20055;-61
2023/03/30 09:11:05;;;;;;;0.40;0.38;;;;;;;;;;4894495;29;20063;-63
2023/03/30 09:13:37;;;;;;;1.65;0.65;;;;;;;;;;4863300;29;20517;-62
2023/03/30 09:16:07;;;;;;;0.40;0.40;;;;;;;;;;4879041;29;20513;-64
2023/03/30 09:18:40;;;;;;;0.15;0.10;;;;;;;;;;4878598;29;20505;-62
2023/03/30 09:21:12;;;;;;;0.10;0.10;;;;;;;;;;4878556;29;20053;-63
2023/03/30 09:23:42;;;;;;;0.30;0.22;;;;;;;;;;4894029;29;20064;-62
2023/03/30 09:26:22;;;;;;;1.65;0.15;;;;;;;;;;4908172;29;20055;-63
2023/03/30 09:28:59;;;;;;;0.20;0.20;;;;;;;;;;4885069;29;20067;-63
2023/03/30 09:31:43;;;;;;;0.50;0.30;;;;;;;;;;4893427;29;20049;-61
2023/03/30 09:34:28;;;;;;;0.20;0.20;;;;;;;;;;4846347;29;20051;-61
2023/03/30 09:37:17;;;;;;;0.10;0.10;;;;;;;;;;4925693;28;20043;-62
2023/03/30 09:39:51;;;;;;;1.02;0.20;;;;;;;;;;4938160;28;20058;-64
2023/03/30 09:43:01;;;;;;;1.00;0.10;;;;;;;;;;4938269;28;20514;-64
2023/03/30 09:45:33;;;;;;;0.30;0.10;;;;;;;;;;4970230;28;20066;-62
2023/03/30 09:48:07;;;;;;;0.73;0.43;;;;;;;;;;4976605;28;20069;-61
2023/03/30 09:50:40;;;;;;;0.20;0.17;;;;;;;;;;4989474;28;20054;-60
2023/03/30 09:53:28;;;;;;;0.82;0.13;;;;;;;;;;4989683;28;20049;-63
2023/03/30 09:56:11;;;;;;;0.43;0.30;;;;;;;;;;4973826;28;20058;-59
2023/03/30 09:58:41;;;;;;;2.72;0.30;;;;;;;;;;4941650;28;20069;-63
2023/03/30 10:01:13;;;;;;;1.42;0.20;;;;;;;;;;4989956;28;20065;-63
2023/03/30 10:03:45;;;;;;;1.08;0.20;;;;;;;;;;4931666;28;20608;-61
2023/03/30 10:06:18;;;;;;;1.20;0.40;;;;;;;;;;5009219;28;20050;-63
2023/03/30 10:08:48;;;;;;;2.85;1.10;;;;;;;;;;4989134;28;20379;-63
2023/03/30 10:11:28;;;;;;;1.20;0.60;;;;;;;;;;4989523;28;20063;-62
2023/03/30 10:13:58;;;;;;;5.60;0.50;;;;;;;;;;4989430;28;20054;-62
2023/03/30 10:16:33;;;;;;;2.47;0.40;;;;;;;;;;4973114;28;20050;-63
2023/03/30 10:19:15;;;;;;;0.45;0.20;;;;;;;;;;4989598;28;20046;-62
2023/03/30 10:21:46;;;;;;;0.35;0.20;;;;;;;;;;4989638;28;20053;-62
2023/03/30 10:24:47;;;;;;;0.40;0.20;;;;;;;;;;4989582;28;20058;-62
2023/03/30 10:27:18;;;;;;;0.50;0.30;;;;;;;;;;4931591;29;20474;-62
2023/03/30 10:29:50;;;;;;;0.50;0.22;;;;;;;;;;4896935;29;20454;-64
2023/03/30 10:32:28;;;;;;;0.90;0.50;;;;;;;;;;4883829;29;20121;-63
2023/03/30 10:35:00;;;;;;;0.82;0.20;;;;;;;;;;4898280;29;20048;-63
2023/03/30 10:37:35;;;;;;;2.67;0.30;;;;;;;;;;4905828;29;20047;-61
2023/03/30 10:40:39;;;;;;;2.28;0.50;;;;;;;;;;4932100;29;20056;-63
2023/03/30 10:43:31;;;;;;;0.52;0.40;;;;;;;;;;4899695;29;20531;-63
2023/03/30 10:46:21;;;;;;;0.68;0.30;;;;;;;;;;4928402;29;20565;-61
2023/03/30 10:49:09;;;;;;;1.20;0.75;;;;;;;;;;4934738;29;20066;-61
2023/03/30 10:52:14;;;;;;;2.33;0.47;;;;;;;;;;4934859;29;20063;-64
2023/03/30 10:55:22;;;;;;;1.88;0.57;;;;;;;;;;4892785;29;20052;-61
2023/03/30 10:58:22;;;;;;;0.32;0.30;;;;;;;;;;4822061;29;20554;-62
2023/03/30 11:01:12;;;;;;;2.58;0.63;;;;;;;;;;4822031;29;20533;-62
2023/03/30 11:03:56;;;;;;;0.88;0.40;;;;;;;;;;4825382;29;20081;-62
2023/03/30 11:06:39;;;;;;;1.83;0.40;;;;;;;;;;4822366;29;20062;-62
2023/03/30 11:09:20;;;;;;;2.78;0.40;;;;;;;;;;4806895;29;20769;-63
2023/03/30 11:12:04;;;;;;;5.72;2.10;;;;;;;;;;4820969;29;20054;-62
2023/03/30 11:14:45;;;;;;;1.85;1.05;;;;;;;;;;4821859;29;20490;-64
2023/03/30 11:17:25;;;;;;;3.53;0.90;;;;;;;;;;4820474;29;20069;-64
2023/03/30 11:19:56;;;;;;;3.15;0.75;;;;;;;;;;4815978;29;20529;-63
2023/03/30 11:22:45;;;;;;;1.52;0.80;;;;;;;;;;4838528;29;20052;-62
2023/03/30 11:25:51;;;;;;;2.17;0.70;;;;;;;;;;4849556;29;20057;-63
2023/03/30 11:28:34;;;;;;;1.95;0.40;;;;;;;;;;4843554;29;20537;-62
2023/03/30 11:31:18;;;;;;;2.80;0.30;;;;;;;;;;4843915;29;20233;-62
2023/03/30 11:33:57;;;;;;;1.02;0.57;;;;;;;;;;4872735;29;20417;-66
2023/03/30 11:36:45;;;;;;;3.13;0.68;;;;;;;;;;4937291;29;21049;-63
2023/03/30 11:39:18;;;;;;;0.90;0.43;;;;;;;;;;4953398;28;20074;-63
2023/03/30 11:42:20;;;;;;;0.77;0.40;;;;;;;;;;4907493;29;20051;-62
2023/03/30 11:44:51;;;;;;;0.52;0.38;;;;;;;;;;4895651;29;20048;-62
2023/03/30 11:47:29;;;;;;;0.65;0.30;;;;;;;;;;4850225;29;20123;-63
2023/03/30 11:50:20;;;;;;;;;;;;;;;;;;4880436;29;20069;-62
2023/03/30 11:53:23;;;;;;;2.80;0.50;;;;;;;;;;4895575;29;19923;-65
2023/03/30 11:56:01;;;;;;;;;;;;;;;;;;4880581;29;20052;-63
2023/03/30 11:58:33;;;;;;;3.40;0.70;;;;;;;;;;4895484;29;20383;-63
2023/03/30 12:01:25;;;;;;;2.17;0.70;;;;;;;;;;4864705;29;20557;-63
2023/03/30 12:04:47;;;;;;;1.85;0.70;;;;;;;;;;4914402;28;20075;-63
2023/03/30 12:07:43;;;;;;;1.20;0.60;;;;;;;;;;4870816;29;20417;-63
2023/03/30 12:10:26;;;;;;;1.10;0.70;;;;;;;;;;4803243;29;20067;-62
2023/03/30 12:12:57;;;;;;;1.42;0.75;;;;;;;;;;4803504;29;20069;-63
2023/03/30 12:15:52;;;;;;;2.05;0.70;;;;;;;;;;4787845;29;20104;-63
2023/03/30 12:18:41;;;;;;;2.85;0.68;;;;;;;;;;4788105;29;20606;-63
2023/03/30 12:21:44;;;;;;;4.93;0.82;;;;;;;;;;4788024;29;20054;-62
2023/03/30 12:24:34;;;;;;;1.58;0.80;;;;;;;;;;4772952;29;20070;-62
2023/03/30 12:27:04;;;;;;;2.80;0.90;;;;;;;;;;4803057;29;20066;-63
2023/03/30 12:29:52;;;;;;;2.08;0.90;;;;;;;;;;4802975;29;20076;-62
2023/03/30 12:32:28;;;;;;;1.85;1.00;;;;;;;;;;4820803;29;20054;-63
2023/03/30 12:34:58;;;;;;;4.63;1.10;;;;;;;;;;4821761;29;20507;-62
2023/03/30 12:37:34;;;;;;;1.80;1.10;;;;;;;;;;4839003;29;20061;-63
2023/03/30 12:40:21;;;;;;;2.25;1.00;;;;;;;;;;4808644;29;20411;-62
2023/03/30 12:42:53;;;;;;;;;;;;;;;;;;4810032;29;20057;-63
2023/03/30 12:45:31;;;;;;;2.58;1.00;;;;;;;;;;4911050;29;19923;-64
2023/03/30 12:48:04;;;;;;;2.75;1.40;;;;;;;;;;4911132;29;20059;-64
2023/03/30 12:51:01;;;;;;;2.58;1.48;;;;;;;;;;4919949;29;20075;-64
2023/03/30 12:54:07;;;;;;;1.98;1.40;;;;;;;;;;4951907;29;20051;-62
2023/03/30 12:57:16;;;;;;;2.20;1.10;;;;;;;;;;4935583;29;20450;-62
2023/03/30 13:00:08;;;;;;;1.48;1.05;;;;;;;;;;4864327;29;20052;-63
2023/03/30 13:02:53;;;;;;;2.08;1.02;;;;;;;;;;4908714;29;20060;-63
2023/03/30 13:05:30;;;;;;;1.50;0.93;;;;;;;;;;4900277;29;20051;-63
2023/03/30 13:08:20;;;;;;;3.13;1.10;;;;;;;;;;4928450;29;20072;-64
2023/03/30 13:11:06;;;;;;;2.50;1.00;;;;;;;;;;4947590;28;20054;-66
2023/03/30 13:13:48;;;;;;;2.67;1.60;;;;;;;;;;4919770;28;20047;-63
2023/03/30 13:16:47;;;;;;;2.22;1.20;;;;;;;;;;4919591;29;20059;-64
2023/03/30 13:19:20;;;;;;;3.70;1.40;;;;;;;;;;4934634;29;20082;-62
2023/03/30 13:22:15;;;;;;;2.17;1.27;;;;;;;;;;4950863;29;20515;-63
2023/03/30 13:25:23;;;;;;;3.88;1.50;;;;;;;;;;4912361;29;20063;-63
2023/03/30 13:27:57;;;;;;;4.28;1.92;;;;;;;;;;4931699;29;20063;-65
2023/03/30 13:30:29;;;;;;;3.20;1.30;;;;;;;;;;4912062;29;20067;-63
2023/03/30 13:33:20;;;;;;;3.30;1.45;;;;;;;;;;4912518;29;20063;-64
2023/03/30 13:36:05;;;;;;;4.20;1.25;;;;;;;;;;4949032;29;20051;-63
2023/03/30 13:38:53;;;;;;;3.72;1.23;;;;;;;;;;4948446;28;20055;-65
2023/03/30 13:41:47;;;;;;;3.53;1.33;;;;;;;;;;4915627;28;20063;-66
2023/03/30 13:44:34;;;;;;;3.13;1.20;;;;;;;;;;4951204;28;20047;-63
2023/03/30 13:47:44;;;;;;;2.72;0.90;;;;;;;;;;4920140;29;20071;-64
2023/03/30 13:50:24;;;;;;;2.88;1.52;;;;;;;;;;4892962;29;20064;-63
2023/03/30 13:53:00;;;;;;;2.00;0.80;;;;;;;;;;4855816;29;20053;-63
2023/03/30 13:55:36;;;;;;;1.48;0.80;;;;;;;;;;4856039;29;20057;-64
2023/03/30 13:58:33;;;;;;;17.63;3.38;;;;;;;;;;4864251;29;20065;-63
2023/03/30 14:01:10;;;;;;;1.92;0.77;;;;;;;;;;4854001;29;20064;-65
2023/03/30 14:03:54;;;;;;;1.85;0.88;;;;;;;;;;4838237;29;20058;-64
2023/03/30 14:06:28;;;;;;;2.50;1.40;;;;;;;;;;4838875;29;20425;-66
2023/03/30 14:09:10;;;;;;;1.42;0.80;;;;;;;;;;4887513;29;20052;-63
2023/03/30 14:11:50;;;;;;;1.83;0.80;;;;;;;;;;4889967;29;20080;-64
2023/03/30 14:14:48;;;;;;;1.02;0.50;;;;;;;;;;4876770;29;20070;-65
2023/03/30 14:17:23;;;;;;;0.93;0.50;;;;;;;;;;4858883;29;20053;-62
2023/03/30 14:20:15;;;;;;;1.73;0.57;;;;;;;;;;4858438;29;20078;-64
2023/03/30 14:22:47;;;;;;;2.58;0.80;;;;;;;;;;4865394;29;20820;-63
2023/03/30 14:25:37;;;;;;;2.05;0.60;;;;;;;;;;4861719;29;20057;-63
2023/03/30 14:28:19;;;;;;;5.40;1.30;;;;;;;;;;4899960;29;20428;-64
2023/03/30 14:30:55;;;;;;;1.67;0.70;;;;;;;;;;4868966;29;20136;-64
2023/03/30 14:33:25;;;;;;;0.75;0.47;;;;;;;;;;4878375;29;20069;-64
2023/03/30 14:35:58;;;;;;;3.60;0.88;;;;;;;;;;4852868;29;20045;-64
2023/03/30 14:38:38;;;;;;;2.17;1.42;;;;;;;;;;4912877;29;20058;-64
2023/03/30 14:41:19;;;;;;;1.48;0.70;;;;;;;;;;4909102;29;20479;-64
2023/03/30 14:43:56;;;;;;;1.25;0.68;;;;;;;;;;4915761;29;20392;-65
2023/03/30 14:46:45;;;;;;;2.55;0.80;;;;;;;;;;4878187;29;20674;-63
2023/03/30 14:49:24;;;;;;;4.05;0.80;;;;;;;;;;4878161;29;20052;-63
2023/03/30 14:52:20;;;;;;;2.15;0.90;;;;;;;;;;4862418;29;20072;-64
2023/03/30 14:54:53;;;;;;;2.25;1.10;;;;;;;;;;4878473;29;20451;-63
2023/03/30 14:57:40;;;;;;;2.88;0.70;;;;;;;;;;4884233;29;20052;-63
2023/03/30 15:00:19;;;;;;;2.58;1.30;;;;;;;;;;4915087;29;20064;-63
2023/03/30 15:02:54;;;;;;;3.30;1.08;;;;;;;;;;4935216;28;20065;-65
2023/03/30 15:05:30;;;;;;;2.58;1.10;;;;;;;;;;4962893;28;20062;-64
2023/03/30 15:08:02;;;;;;;1.70;1.20;;;;;;;;;;4960576;28;20059;-64
2023/03/30 15:10:57;;;;;;;1.42;0.80;;;;;;;;;;4991922;28;20530;-64
2023/03/30 15:13:42;;;;;;;0.88;0.50;;;;;;;;;;4975379;28;20053;-64
2023/03/30 15:16:22;;;;;;;1.17;0.60;;;;;;;;;;4992124;28;20042;-64
2023/03/30 15:19:11;;;;;;;3.08;0.75;;;;;;;;;;4975338;28;20058;-64
2023/03/30 15:21:42;;;;;;;1.15;0.65;;;;;;;;;;4991949;28;20051;-64
2023/03/30 15:24:20;;;;;;;2.08;0.93;;;;;;;;;;4998386;28;20060;-64
2023/03/30 15:26:51;;;;;;;1.00;0.73;;;;;;;;;;5017671;28;20050;-63
2023/03/30 15:29:22;;;;;;;;;;;;;;;;;;4980636;28;20050;-64
2023/03/30 15:32:18;;;;;;;2.20;1.00;;;;;;;;;;5020272;28;20395;-63
2023/03/30 15:35:20;;;;;;;1.85;1.00;;;;;;;;;;5014782;28;20049;-65
2023/03/30 15:38:00;;;;;;;2.97;1.02;;;;;;;;;;4997995;28;20513;-62
2023/03/30 15:40:35;;;;;;;1.00;0.60;;;;;;;;;;5033222;28;20072;-63
2023/03/30 15:43:11;;;;;;;1.55;0.70;;;;;;;;;;4965501;28;20418;-63
2023/03/30 15:45:51;;;;;;;1.23;0.70;;;;;;;;;;5032766;28;20045;-64
2023/03/30 15:48:45;;;;;;;1.00;0.80;;;;;;;;;;5014191;28;20054;-63
2023/03/30 15:51:27;;;;;;;1.23;0.63;;;;;;;;;;4901104;29;20067;-64
2023/03/30 15:54:02;;;;;;;3.72;1.20;;;;;;;;;;4885929;29;20059;-63
2023/03/30 15:57:03;;;;;;;0.98;0.70;;;;;;;;;;4932328;29;20427;-64
2023/03/30 15:59:43;;;;;;;1.65;0.82;;;;;;;;;;4902594;29;20048;-65
2023/03/30 16:02:44;;;;;;;1.98;0.63;;;;;;;;;;4929865;29;20471;-63
2023/03/30 16:05:19;;;;;;;1.50;0.70;;;;;;;;;;4857503;29;20068;-63
2023/03/30 16:07:51;;;;;;;2.42;0.75;;;;;;;;;;4811987;29;20129;-63
2023/03/30 16:10:32;;;;;;;2.00;0.80;;;;;;;;;;4857615;29;20068;-63
2023/03/30 16:13:02;;;;;;;1.52;1.10;;;;;;;;;;4857458;29;20057;-63
2023/03/30 16:15:33;;;;;;;3.13;1.63;;;;;;;;;;4857613;29;20410;-63
2023/03/30 16:18:03;;;;;;;2.15;1.42;;;;;;;;;;4857138;29;20399;-63
2023/03/30 16:20:33;;;;;;;2.13;0.98;;;;;;;;;;4839004;29;20065;-63
2023/03/30 16:23:03;;;;;;;2.08;0.90;;;;;;;;;;4793202;29;20064;-65
2023/03/30 16:25:34;;;;;;;1.42;0.90;;;;;;;;;;4812727;29;20060;-63
2023/03/30 16:28:17;;;;;;;1.40;0.90;;;;;;;;;;4861698;29;20052;-64
2023/03/30 16:30:49;;;;;;;1.77;0.80;;;;;;;;;;4913759;29;20052;-63
2023/03/30 16:33:19;;;;;;;1.38;0.80;;;;;;;;;;4932250;29;20063;-64
2023/03/30 16:35:49;;;;;;;1.30;0.77;;;;;;;;;;4901010;29;20065;-62
2023/03/30 16:38:21;;;;;;;2.10;1.10;;;;;;;;;;4931431;29;20082;-66
2023/03/30 16:40:55;;;;;;;3.08;0.90;;;;;;;;;;4916736;29;20048;-64
2023/03/30 16:43:26;;;;;;;3.85;0.93;;;;;;;;;;4952005;28;20061;-64
2023/03/30 16:45:57;;;;;;;2.15;0.95;;;;;;;;;;4990184;28;20550;-63
2023/03/30 16:48:27;;;;;;;3.97;1.02;;;;;;;;;;4955066;28;20535;-64
2023/03/30 16:50:58;;;;;;;2.17;0.90;;;;;;;;;;4974100;28;20066;-65
2023/03/30 16:53:28;;;;;;;1.77;0.80;;;;;;;;;;4990158;28;21187;-63
2023/03/30 16:55:58;;;;;;;1.73;1.00;;;;;;;;;;4990005;28;20062;-64
2023/03/30 16:58:28;;;;;;;2.45;1.00;;;;;;;;;;4973611;28;20062;-63
2023/03/30 17:01:02;;;;;;;1.42;0.90;;;;;;;;;;4949242;29;20502;-65
2023/03/30 17:03:33;;;;;;;2.13;0.70;;;;;;;;;;4950863;29;20063;-64
2023/03/30 17:06:02;;;;;;;2.35;0.70;;;;;;;;;;4950894;29;20063;-65
2023/03/30 17:08:32;;;;;;;1.55;0.80;;;;;;;;;;4950664;29;20500;-65
2023/03/30 17:11:03;;;;;;;1.70;0.70;;;;;;;;;;4919330;29;20059;-65
2023/03/30 17:13:33;;;;;;;1.48;0.70;;;;;;;;;;4902939;29;20066;-64
2023/03/30 17:16:05;;;;;;;5.68;0.80;;;;;;;;;;4939679;28;20418;-64
2023/03/30 17:18:35;;;;;;;1.92;0.70;;;;;;;;;;4957533;28;20058;-64
2023/03/30 17:21:05;;;;;;;1.92;0.90;;;;;;;;;;4989480;28;20429;-64
2023/03/30 17:23:37;;;;;;;1.67;1.15;;;;;;;;;;4904453;29;20393;-64
2023/03/30 17:26:10;;;;;;;1.10;0.63;;;;;;;;;;4959754;28;20050;-65
2023/03/30 17:28:41;;;;;;;2.38;0.57;;;;;;;;;;4937877;28;20514;-64
2023/03/30 17:31:18;;;;;;;1.17;0.57;;;;;;;;;;4969968;28;20047;-65
2023/03/30 17:33:49;;;;;;;1.63;0.70;;;;;;;;;;4939537;28;20066;-66
2023/03/30 17:36:24;;;;;;;4.30;0.60;;;;;;;;;;4954012;28;20058;-65
2023/03/30 17:38:54;;;;;;;1.20;0.60;;;;;;;;;;4994158;28;20641;-64
2023/03/30 17:41:25;;;;;;;2.08;0.90;;;;;;;;;;4992129;28;20425;-65
2023/03/30 17:43:54;;;;;;;1.83;0.65;;;;;;;;;;4991864;28;20053;-66
2023/03/30 17:46:24;;;;;;;3.63;1.02;;;;;;;;;;4944493;28;20067;-65
2023/03/30 17:48:54;;;;;;;3.70;0.50;;;;;;;;;;4975416;28;20164;-64
2023/03/30 17:51:24;;;;;;;0.70;0.50;;;;;;;;;;5010543;28;20049;-64
2023/03/30 17:53:54;;;;;;;0.77;0.47;;;;;;;;;;5012638;28;20529;-65
2023/03/30 17:56:24;;;;;;;0.88;0.65;;;;;;;;;;5012818;28;20062;-65
2023/03/30 17:58:54;;;;;;;1.58;0.43;;;;;;;;;;5012031;28;20046;-65
2023/03/30 18:01:24;;;;;;;0.80;0.60;;;;;;;;;;5050287;28;20060;-64
2023/03/30 18:03:54;;;;;;;1.63;0.52;;;;;;;;;;5066827;28;20036;-65
2023/03/30 18:06:24;;;;;;;1.63;0.70;;;;;;;;;;5054886;28;20045;-64
2023/03/30 18:08:54;;;;;;;1.50;0.50;;;;;;;;;;5019309;28;20053;-65
2023/03/30 18:11:25;;;;;;;1.85;0.50;;;;;;;;;;5054962;28;20052;-64
2023/03/30 18:13:55;;;;;;;2.53;0.60;;;;;;;;;;5054312;28;20512;-65
2023/03/30 18:16:25;;;;;;;1.33;0.70;;;;;;;;;;5051284;28;20037;-65
2023/03/30 18:18:55;;;;;;;2.83;0.90;;;;;;;;;;4985590;28;20049;-65
2023/03/30 18:21:28;;;;;;;2.00;0.50;;;;;;;;;;5004825;28;20056;-64
2023/03/30 18:23:58;;;;;;;2.00;0.57;;;;;;;;;;5053623;28;20045;-65
2023/03/30 18:26:32;;;;;;;0.85;0.38;;;;;;;;;;5054164;28;20064;-65
2023/03/30 18:29:05;;;;;;;1.70;0.68;;;;;;;;;;5019301;28;20068;-65
2023/03/30 18:31:35;;;;;;;2.85;0.60;;;;;;;;;;5054155;28;20048;-64
2023/03/30 18:34:06;;;;;;;0.40;0.40;;;;;;;;;;5025875;28;20057;-65
2023/03/30 18:36:37;;;;;;;1.25;0.50;;;;;;;;;;5053695;28;20037;-66
2023/03/30 18:39:18;;;;;;;0.75;0.43;;;;;;;;;;5053666;28;20049;-65
2023/03/30 18:41:52;;;;;;;1.33;0.88;;;;;;;;;;4950083;28;20531;-64
2023/03/30 18:44:24;;;;;;;1.58;0.57;;;;;;;;;;5034158;28;20048;-63
2023/03/30 18:47:42;;;;;;;0.77;0.30;;;;;;;;;;5034208;28;20378;-63
2023/03/30 18:50:22;;;;;;;2.08;0.55;;;;;;;;;;5016396;28;20061;-64
2023/03/30 18:52:53;;;;;;;1.40;0.32;;;;;;;;;;5015478;28;20412;-64
2023/03/30 18:55:25;;;;;;;0.52;0.35;;;;;;;;;;4996725;28;20052;-67
2023/03/30 18:58:01;;;;;;;0.98;0.65;;;;;;;;;;5003338;28;20053;-64
2023/03/30 19:00:33;;;;;;;2.15;0.70;;;;;;;;;;5011526;28;20169;-63
2023/03/30 19:03:04;;;;;;;0.80;0.50;;;;;;;;;;4963394;28;20057;-63
2023/03/30 19:05:38;;;;;;;0.93;0.40;;;;;;;;;;4980644;28;20506;-63
2023/03/30 19:08:16;;;;;;;0.40;0.35;;;;;;;;;;4988534;28;20055;-63
2023/03/30 19:10:51;;;;;;;1.05;0.40;;;;;;;;;;4958901;28;20066;-63
2023/03/30 19:13:22;;;;;;;0.50;0.35;;;;;;;;;;4975444;28;20070;-63
2023/03/30 19:15:52;;;;;;;0.90;0.45;;;;;;;;;;4991262;28;20070;-64
2023/03/30 19:18:22;;;;;;;1.95;0.30;;;;;;;;;;4993560;28;20046;-63
2023/03/30 19:20:54;;;;;;;0.40;0.30;;;;;;;;;;5006928;28;20413;-63